createdAt,value
2023-08-18T00:01:41.071Z,99.90
2023-08-18T00:04:09.867Z,99.90
2023-08-18T00:06:38.328Z,99.90
2023-08-18T00:09:07.200Z,99.90
2023-08-18T00:11:36.955Z,99.90
2023-08-18T00:14:05.473Z,99.90
2023-08-18T00:16:33.928Z,99.90
2023-08-18T00:19:02.400Z,99.90
2023-08-18T00:21:30.913Z,99.90
2023-08-18T00:23:59.320Z,99.90
2023-08-18T00:26:27.705Z,99.90
2023-08-18T00:28:57.479Z,99.90
2023-08-18T00:31:26.732Z,99.90
2023-08-18T00:33:55.256Z,99.90
2023-08-18T00:36:26.425Z,99.90
2023-08-18T00:38:54.931Z,99.90
2023-08-18T00:41:23.304Z,99.90
2023-08-18T00:43:53.773Z,99.90
2023-08-18T00:46:23.799Z,99.90
2023-08-18T00:48:52.499Z,99.90
2023-08-18T00:51:21.551Z,99.90
2023-08-18T00:53:50.053Z,99.90
2023-08-18T00:56:18.637Z,99.90
2023-08-18T00:58:47.201Z,99.90
2023-08-18T01:01:15.831Z,99.90
2023-08-18T01:03:46.834Z,99.90
2023-08-18T01:06:15.307Z,99.90
2023-08-18T01:08:43.703Z,99.90
2023-08-18T01:11:22.569Z,99.90
2023-08-18T01:13:56.786Z,99.90
2023-08-18T01:16:28.188Z,99.90
2023-08-18T01:18:58.796Z,99.90
2023-08-18T01:21:27.939Z,99.90
2023-08-18T01:23:57.671Z,99.90
2023-08-18T01:26:26.091Z,99.90
2023-08-18T01:28:54.575Z,99.90
2023-08-18T01:31:30.381Z,99.90
2023-08-18T01:34:02.595Z,99.90
2023-08-18T01:36:35.830Z,99.90
2023-08-18T01:39:07.895Z,99.90
2023-08-18T01:41:36.861Z,99.90
2023-08-18T01:44:08.224Z,99.90
2023-08-18T01:46:36.657Z,99.90
2023-08-18T01:49:05.674Z,99.90
2023-08-18T01:51:34.050Z,99.90
2023-08-18T01:54:02.451Z,99.90
2023-08-18T01:56:32.278Z,99.90
2023-08-18T01:59:01.149Z,99.90
2023-08-18T02:01:29.545Z,99.90
2023-08-18T02:03:58.041Z,99.90
2023-08-18T02:06:26.504Z,99.90
2023-08-18T02:08:54.981Z,99.90
2023-08-18T02:11:23.464Z,99.90
2023-08-18T02:13:56.290Z,99.90
2023-08-18T02:16:24.764Z,99.90
2023-08-18T02:18:53.706Z,99.90
2023-08-18T02:21:22.183Z,99.90
2023-08-18T02:23:50.537Z,99.90
2023-08-18T02:26:19.598Z,99.90
2023-08-18T02:28:48.991Z,99.90
2023-08-18T02:31:19.198Z,99.90
2023-08-18T02:33:47.694Z,99.90
2023-08-18T02:36:16.112Z,99.90
2023-08-18T02:38:44.523Z,99.90
2023-08-18T02:41:13.356Z,99.90
2023-08-18T02:43:41.808Z,99.90
2023-08-18T02:46:10.145Z,99.90
2023-08-18T02:48:39.891Z,99.90
2023-08-18T02:51:09.766Z,99.90
2023-08-18T02:53:39.329Z,99.90
2023-08-18T02:56:07.882Z,99.90
2023-08-18T02:58:37.937Z,99.90
2023-08-18T03:01:07.687Z,99.90
2023-08-18T03:03:36.780Z,99.90
2023-08-18T03:06:07.913Z,99.90
2023-08-18T03:08:37.993Z,99.90
2023-08-18T03:11:06.522Z,99.90
2023-08-18T03:13:35.339Z,99.90
2023-08-18T03:16:04.291Z,99.90
2023-08-18T03:18:32.828Z,99.90
2023-08-18T03:21:02.189Z,99.90
2023-08-18T03:23:34.421Z,99.90
2023-08-18T03:26:04.839Z,99.90
2023-08-18T03:28:35.679Z,99.90
2023-08-18T03:31:05.916Z,99.90
2023-08-18T03:33:35.806Z,99.90
2023-08-18T03:36:07.148Z,99.90
2023-08-18T03:38:37.035Z,99.90
2023-08-18T03:41:07.267Z,99.90
2023-08-18T03:43:36.187Z,99.90
2023-08-18T03:46:21.609Z,99.90
2023-08-18T03:48:52.143Z,99.90
2023-08-18T03:51:20.767Z,99.90
2023-08-18T03:53:50.680Z,99.90
2023-08-18T03:56:19.270Z,99.90
2023-08-18T03:58:47.662Z,99.90
2023-08-18T04:01:16.183Z,99.90
2023-08-18T04:03:46.358Z,99.90
2023-08-18T04:06:15.097Z,99.90
2023-08-18T04:08:46.472Z,99.90
2023-08-18T04:11:16.354Z,99.90
2023-08-18T04:13:46.111Z,99.90
2023-08-18T04:16:14.544Z,99.90
2023-08-18T04:18:44.085Z,99.90
2023-08-18T04:21:12.706Z,99.90
2023-08-18T04:23:41.321Z,99.90
2023-08-18T04:26:13.257Z,99.90
2023-08-18T04:28:43.333Z,99.90
2023-08-18T04:31:12.242Z,99.90
2023-08-18T04:33:48.188Z,99.90
2023-08-18T04:36:17.117Z,99.90
2023-08-18T04:38:45.781Z,99.90
2023-08-18T04:41:21.766Z,99.90
2023-08-18T04:43:53.483Z,99.90
2023-08-18T04:46:26.076Z,99.90
2023-08-18T04:48:56.616Z,99.90
2023-08-18T04:51:25.312Z,99.90
2023-08-18T04:53:53.712Z,99.90
2023-08-18T04:56:22.265Z,99.90
2023-08-18T04:58:52.209Z,99.90
2023-08-18T05:01:20.669Z,99.90
2023-08-18T05:03:49.291Z,99.90
2023-08-18T05:06:17.818Z,99.90
2023-08-18T05:08:46.228Z,99.90
2023-08-18T05:11:14.773Z,99.90
2023-08-18T05:13:44.254Z,99.90
2023-08-18T05:16:14.452Z,99.90
2023-08-18T05:18:42.994Z,99.90
2023-08-18T05:21:11.432Z,99.90
2023-08-18T05:23:40.064Z,99.90
2023-08-18T05:26:08.653Z,99.90
2023-08-18T05:28:37.216Z,99.90
2023-08-18T05:31:05.750Z,99.90
2023-08-18T05:33:35.645Z,99.90
2023-08-18T05:36:06.901Z,99.90
2023-08-18T05:38:35.527Z,99.90
2023-08-18T05:41:11.568Z,99.90
2023-08-18T05:43:40.689Z,99.90
2023-08-18T05:46:09.255Z,99.90
2023-08-18T05:48:39.340Z,99.90
2023-08-18T05:51:07.814Z,99.90
2023-08-18T05:53:36.834Z,99.90
2023-08-18T05:56:05.603Z,99.90
2023-08-18T05:58:33.950Z,99.90
2023-08-18T06:01:02.432Z,99.90
2023-08-18T06:03:31.503Z,99.90
2023-08-18T06:06:06.040Z,99.90
2023-08-18T06:08:35.546Z,99.90
2023-08-18T06:11:03.975Z,99.90
2023-08-18T06:13:32.527Z,99.90
2023-08-18T06:16:05.192Z,99.90
2023-08-18T06:18:34.257Z,99.90
2023-08-18T06:21:05.038Z,99.90
2023-08-18T06:23:34.641Z,99.90
2023-08-18T06:26:03.033Z,99.90
2023-08-18T06:28:31.697Z,99.90
2023-08-18T06:31:06.864Z,99.90
2023-08-18T06:33:36.185Z,99.90
2023-08-18T06:36:06.964Z,99.90
2023-08-18T06:38:35.382Z,99.90
2023-08-18T06:41:03.819Z,99.90
2023-08-18T06:43:32.282Z,99.90
2023-08-18T06:46:00.692Z,99.90
2023-08-18T06:48:29.227Z,99.90
2023-08-18T06:50:57.573Z,99.90
2023-08-18T06:53:28.812Z,99.90
2023-08-18T06:56:03.148Z,99.90
2023-08-18T06:58:32.790Z,99.90
2023-08-18T07:01:01.322Z,99.90
2023-08-18T07:03:29.963Z,99.90
2023-08-18T07:05:58.875Z,99.90
2023-08-18T07:08:28.872Z,99.90
2023-08-18T07:10:57.659Z,99.90
2023-08-18T07:13:26.194Z,99.90
2023-08-18T07:15:54.559Z,99.90
2023-08-18T07:18:23.251Z,99.90
2023-08-18T07:20:53.800Z,99.90
2023-08-18T07:23:22.422Z,99.90
2023-08-18T07:25:52.133Z,99.90
2023-08-18T07:28:20.550Z,99.90
2023-08-18T07:30:49.002Z,99.90
2023-08-18T07:33:17.461Z,99.90
2023-08-18T07:35:46.708Z,99.90
2023-08-18T07:38:15.334Z,99.90
2023-08-18T07:40:43.991Z,99.90
2023-08-18T07:43:13.865Z,99.90
2023-08-18T07:45:42.389Z,99.90
2023-08-18T07:48:10.781Z,99.90
2023-08-18T07:50:39.210Z,99.90
2023-08-18T07:53:07.829Z,99.90
2023-08-18T07:55:37.723Z,99.90
2023-08-18T07:58:06.669Z,99.90
2023-08-18T08:00:36.990Z,99.90
2023-08-18T08:03:05.763Z,99.90
2023-08-18T08:05:35.024Z,99.90
2023-08-18T08:08:04.699Z,99.90
2023-08-18T08:10:34.326Z,99.90
2023-08-18T08:13:02.917Z,99.90
2023-08-18T08:15:32.826Z,99.90
2023-08-18T08:18:04.560Z,99.90
2023-08-18T08:20:33.087Z,99.90
2023-08-18T08:23:01.521Z,99.90
2023-08-18T08:25:30.225Z,99.90
2023-08-18T08:27:59.265Z,99.90
2023-08-18T08:30:36.069Z,99.90
2023-08-18T08:33:07.655Z,99.90
2023-08-18T08:35:36.168Z,99.90
2023-08-18T08:38:04.614Z,99.90
2023-08-18T08:40:33.380Z,99.90
2023-08-18T08:43:04.818Z,99.90
2023-08-18T08:45:34.922Z,99.90
2023-08-18T08:48:09.109Z,99.90
2023-08-18T08:50:42.053Z,99.90
2023-08-18T08:53:13.844Z,99.90
2023-08-18T08:55:44.729Z,99.90
2023-08-18T08:58:14.220Z,99.90
2023-08-18T09:00:43.801Z,99.90
2023-08-18T09:03:14.931Z,99.90
2023-08-18T09:05:43.455Z,99.90
2023-08-18T09:08:12.507Z,99.90
2023-08-18T09:10:41.730Z,99.90
2023-08-18T09:13:10.364Z,99.90
2023-08-18T09:15:38.860Z,99.90
2023-08-18T09:18:08.077Z,99.90
2023-08-18T09:20:38.459Z,99.90
2023-08-18T09:23:07.283Z,99.90
2023-08-18T09:25:36.880Z,99.90
2023-08-18T09:28:08.640Z,99.90
2023-08-18T09:30:37.954Z,99.90
2023-08-18T09:33:06.702Z,99.90
2023-08-18T09:35:36.005Z,99.90
2023-08-18T09:38:06.161Z,99.90
2023-08-18T09:40:34.507Z,99.90
2023-08-18T09:43:06.507Z,99.90
2023-08-18T09:45:41.448Z,99.90
2023-08-18T09:48:13.024Z,99.90
2023-08-18T09:50:43.669Z,99.90
2023-08-18T09:53:15.094Z,99.90
2023-08-18T09:55:45.804Z,99.90
2023-08-18T09:58:21.748Z,99.90
2023-08-18T10:00:57.801Z,99.90
2023-08-18T10:03:28.218Z,99.90
2023-08-18T10:05:57.152Z,99.90
2023-08-18T10:08:28.894Z,99.90
2023-08-18T10:10:57.543Z,99.90
2023-08-18T10:13:26.854Z,99.90
2023-08-18T10:15:55.997Z,99.90
2023-08-18T10:18:24.957Z,99.90
2023-08-18T10:20:54.684Z,99.90
2023-08-18T10:23:27.819Z,99.90
2023-08-18T10:25:57.471Z,99.90
2023-08-18T10:28:31.610Z,99.90
2023-08-18T10:31:02.145Z,99.90
2023-08-18T10:33:33.941Z,99.90
2023-08-18T10:36:05.194Z,99.90
2023-08-18T10:38:40.002Z,99.90
2023-08-18T10:41:09.757Z,99.90
2023-08-18T10:43:52.650Z,99.90
2023-08-18T10:46:21.072Z,99.90
2023-08-18T10:48:49.623Z,99.90
2023-08-18T10:51:18.037Z,99.90
2023-08-18T10:53:51.021Z,99.90
2023-08-18T10:56:19.426Z,99.90
2023-08-18T10:58:47.803Z,99.90
2023-08-18T11:01:18.213Z,99.90
2023-08-18T11:03:46.795Z,99.90
2023-08-18T11:06:18.895Z,99.90
2023-08-18T11:08:48.802Z,99.90
2023-08-18T11:11:19.961Z,99.90
2023-08-18T11:13:50.256Z,99.90
2023-08-18T11:16:18.843Z,99.90
2023-08-18T11:18:47.329Z,99.90
2023-08-18T11:21:15.925Z,99.90
2023-08-18T11:23:44.495Z,99.90
2023-08-18T11:26:15.215Z,99.90
2023-08-18T11:28:43.784Z,99.90
2023-08-18T11:31:14.818Z,99.90
2023-08-18T11:33:43.871Z,99.90
2023-08-18T11:36:12.783Z,99.90
2023-08-18T11:38:41.878Z,99.90
2023-08-18T11:41:10.355Z,99.90
2023-08-18T11:43:40.518Z,99.90
2023-08-18T11:46:09.374Z,99.90
2023-08-18T11:48:37.740Z,99.90
2023-08-18T11:51:06.145Z,99.90
2023-08-18T11:53:36.203Z,99.90
2023-08-18T11:56:05.359Z,99.90
2023-08-18T11:58:35.926Z,99.90
2023-08-18T12:01:05.869Z,99.90
2023-08-18T12:03:34.384Z,99.90
2023-08-18T12:06:03.948Z,99.90
2023-08-18T12:08:32.546Z,99.90
2023-08-18T12:11:01.169Z,99.90
2023-08-18T12:13:32.661Z,99.90
2023-08-18T12:16:01.306Z,99.90
2023-08-18T12:18:31.162Z,99.90
2023-08-18T12:20:59.662Z,99.90
2023-08-18T12:23:28.212Z,99.90
2023-08-18T12:25:56.706Z,99.90
2023-08-18T12:28:25.102Z,99.90
2023-08-18T12:30:53.676Z,99.90
2023-08-18T12:33:22.045Z,99.90
2023-08-18T12:35:51.963Z,99.90
2023-08-18T12:38:20.437Z,99.90
2023-08-18T12:40:48.977Z,99.90
2023-08-18T12:43:17.418Z,99.90
2023-08-18T12:45:45.753Z,99.90
2023-08-18T12:48:14.150Z,99.90
2023-08-18T12:50:42.876Z,99.90
2023-08-18T12:53:13.264Z,99.90
2023-08-18T12:55:41.674Z,99.90
2023-08-18T12:58:10.048Z,99.50
2023-08-18T13:00:38.556Z,99.90
2023-08-18T13:03:07.262Z,99.90
2023-08-18T13:05:35.796Z,99.90
2023-08-18T13:08:04.246Z,99.80
2023-08-18T13:10:34.142Z,99.90
2023-08-18T13:13:02.520Z,99.90
2023-08-18T13:15:30.927Z,99.50
2023-08-18T13:17:59.478Z,99.30
2023-08-18T13:20:27.907Z,99.70
2023-08-18T13:23:02.609Z,99.80
2023-08-18T13:25:36.641Z,99.90
2023-08-18T13:28:05.609Z,99.60
2023-08-18T13:30:34.052Z,99.80
2023-08-18T13:33:02.600Z,99.50
2023-08-18T13:35:31.026Z,99.60
2023-08-18T13:37:59.430Z,99.40
2023-08-18T13:40:27.807Z,99.20
2023-08-18T13:42:57.636Z,99.90
2023-08-18T13:45:26.110Z,99.60
2023-08-18T13:47:54.512Z,99.40
2023-08-18T13:50:23.526Z,99.90
2023-08-18T13:52:51.977Z,99.90
2023-08-18T13:55:20.369Z,98.70
2023-08-18T13:57:49.103Z,99.60
2023-08-18T14:00:19.708Z,99.50
2023-08-18T14:02:48.136Z,98.90
2023-08-18T14:05:18.693Z,99.10
2023-08-18T14:07:47.150Z,99.90
2023-08-18T14:10:15.583Z,98.10
2023-08-18T14:12:48.407Z,97.90
2023-08-18T14:15:19.666Z,97.90
2023-08-18T14:17:48.954Z,97.60
2023-08-18T14:20:20.819Z,98.00
2023-08-18T14:22:50.893Z,98.30
2023-08-18T14:25:20.556Z,98.60
2023-08-18T14:27:49.946Z,97.50
2023-08-18T14:30:21.977Z,97.80
2023-08-18T14:32:51.381Z,98.00
2023-08-18T14:35:20.827Z,98.40
2023-08-18T14:37:49.468Z,98.40
2023-08-18T14:40:17.774Z,97.50
2023-08-18T14:42:46.161Z,98.10
2023-08-18T14:45:14.560Z,98.80
2023-08-18T14:47:44.358Z,98.10
2023-08-18T14:50:12.974Z,98.40
2023-08-18T14:52:41.351Z,98.50
2023-08-18T14:55:09.867Z,98.70
2023-08-18T14:57:38.149Z,98.40
2023-08-18T15:00:10.677Z,97.80
2023-08-18T15:02:40.158Z,98.30
2023-08-18T15:05:10.645Z,98.30
2023-08-18T15:07:39.121Z,97.80
2023-08-18T15:10:08.018Z,97.90
2023-08-18T15:12:36.515Z,98.40
2023-08-18T15:15:05.764Z,98.20
2023-08-18T15:17:34.353Z,97.50
2023-08-18T15:20:02.763Z,97.60
2023-08-18T15:22:32.677Z,98.50
2023-08-18T15:25:01.138Z,98.10
2023-08-18T15:27:29.838Z,98.00
2023-08-18T15:29:58.436Z,98.40
2023-08-18T15:32:27.150Z,97.50
2023-08-18T15:34:55.606Z,97.40
2023-08-18T15:37:24.054Z,97.70
2023-08-18T15:39:55.070Z,97.60
2023-08-18T15:42:23.534Z,98.10
2023-08-18T15:44:54.062Z,97.40
2023-08-18T15:47:22.555Z,97.10
2023-08-18T15:49:51.009Z,97.50
2023-08-18T15:52:21.799Z,97.70
2023-08-18T15:54:50.911Z,97.20
2023-08-18T15:57:20.698Z,97.50
2023-08-18T15:59:49.119Z,97.30
2023-08-18T16:02:17.517Z,97.30
2023-08-18T16:04:45.976Z,97.70
2023-08-18T16:07:14.336Z,98.20
2023-08-18T16:09:42.754Z,97.80
2023-08-18T16:12:12.563Z,97.70
2023-08-18T16:17:14.521Z,98.30
2023-08-18T16:19:42.907Z,98.60
2023-08-18T16:22:11.515Z,98.30
2023-08-18T16:24:39.876Z,98.10
2023-08-18T16:27:08.382Z,98.00
2023-08-18T16:29:36.715Z,98.60
2023-08-18T16:32:06.694Z,98.60
2023-08-18T16:34:35.226Z,98.60
2023-08-18T16:37:03.617Z,98.30
2023-08-18T16:39:32.082Z,98.50
2023-08-18T16:42:00.533Z,98.90
2023-08-18T16:44:28.925Z,98.90
2023-08-18T16:46:57.403Z,98.80
2023-08-18T16:49:27.179Z,98.20
2023-08-18T16:51:57.451Z,97.80
2023-08-18T16:54:26.109Z,97.90
2023-08-18T16:56:54.541Z,97.90
2023-08-18T16:59:22.906Z,97.60
2023-08-18T17:01:51.261Z,97.30
2023-08-18T17:04:20.114Z,97.60
2023-08-18T17:06:49.920Z,97.40
2023-08-18T17:09:18.244Z,97.60
2023-08-18T17:11:46.650Z,97.60
2023-08-18T17:14:15.543Z,98.20
2023-08-18T17:16:43.962Z,98.60
2023-08-18T17:19:14.684Z,98.70
2023-08-18T17:21:43.070Z,98.80
2023-08-18T17:24:16.411Z,99.00
2023-08-18T17:26:44.939Z,99.30
2023-08-18T17:29:13.247Z,99.50
2023-08-18T17:31:41.691Z,99.20
2023-08-18T17:34:10.229Z,99.40
2023-08-18T17:36:38.905Z,99.80
2023-08-18T17:39:07.329Z,99.50
2023-08-18T17:41:37.151Z,99.90
2023-08-18T17:44:05.968Z,99.60
2023-08-18T17:46:34.855Z,99.80
2023-08-18T17:49:04.611Z,99.60
2023-08-18T17:51:33.336Z,99.80
2023-08-18T17:54:01.717Z,99.80
2023-08-18T17:56:30.140Z,99.80
2023-08-18T17:58:59.916Z,99.40
2023-08-18T18:01:28.402Z,99.90
2023-08-18T18:03:56.831Z,99.60
2023-08-18T18:06:25.371Z,99.80
2023-08-18T18:08:53.916Z,99.90
2023-08-18T18:11:22.404Z,99.80
2023-08-18T18:13:50.720Z,99.70
2023-08-18T18:16:20.454Z,99.90
2023-08-18T18:18:48.964Z,99.90
2023-08-18T18:21:17.307Z,99.90
2023-08-18T18:23:45.658Z,99.90
2023-08-18T18:26:13.969Z,99.90
2023-08-18T18:28:42.393Z,99.90
2023-08-18T18:31:10.764Z,99.90
2023-08-18T18:33:40.612Z,99.90
2023-08-18T18:36:11.006Z,99.90
2023-08-18T18:38:41.416Z,99.90
2023-08-18T18:41:10.123Z,99.90
2023-08-18T18:43:40.877Z,99.90
2023-08-18T18:46:09.444Z,99.90
2023-08-18T18:48:38.601Z,99.90
2023-08-18T18:51:08.387Z,99.90
2023-08-18T18:53:37.254Z,99.90
2023-08-18T18:56:05.853Z,99.90
2023-08-18T18:58:34.388Z,99.90
2023-08-18T19:01:02.729Z,99.90
2023-08-18T19:03:31.174Z,99.90
2023-08-18T19:05:59.702Z,99.90
2023-08-18T19:08:29.501Z,99.90
2023-08-18T19:10:59.209Z,99.90
2023-08-18T19:13:28.548Z,99.90
2023-08-18T19:15:57.301Z,99.90
2023-08-18T19:18:27.893Z,99.90
2023-08-18T19:20:56.846Z,99.90
2023-08-18T19:23:25.330Z,99.90
2023-08-18T19:25:55.486Z,99.90
2023-08-18T19:28:24.028Z,99.90
2023-08-18T19:30:52.581Z,99.90
2023-08-18T19:33:21.038Z,99.90
2023-08-18T19:35:52.653Z,99.90
2023-08-18T19:38:21.046Z,99.90
2023-08-18T19:40:54.824Z,99.90
2023-08-18T19:43:23.493Z,99.90
2023-08-18T19:45:57.688Z,99.90
2023-08-18T19:48:26.221Z,99.90
2023-08-18T19:50:55.175Z,99.90
2023-08-18T19:53:24.497Z,99.90
2023-08-18T19:55:54.680Z,99.90
2023-08-18T19:58:24.733Z,99.90
2023-08-18T20:00:53.308Z,99.90
2023-08-18T20:03:21.782Z,99.90
2023-08-18T20:05:50.238Z,99.90
2023-08-18T20:08:18.611Z,99.90
2023-08-18T20:10:48.204Z,99.90
2023-08-18T20:13:18.017Z,99.90
2023-08-18T20:15:49.664Z,99.90
2023-08-18T20:18:18.276Z,99.90
2023-08-18T20:20:47.537Z,99.90
2023-08-18T20:23:16.129Z,99.90
2023-08-18T20:25:44.663Z,99.90
2023-08-18T20:28:13.261Z,99.90
2023-08-18T20:30:46.198Z,99.90
2023-08-18T20:33:14.649Z,99.90
2023-08-18T20:35:43.079Z,99.90
2023-08-18T20:38:14.698Z,99.90
2023-08-18T20:40:43.315Z,99.90
2023-08-18T20:43:11.708Z,99.90
2023-08-18T20:45:40.076Z,99.90
2023-08-18T20:48:09.952Z,99.90
2023-08-18T20:50:39.328Z,99.90
2023-08-18T20:53:07.857Z,99.90
2023-08-18T20:55:36.204Z,99.90
2023-08-18T20:58:04.815Z,99.90
2023-08-18T21:00:34.170Z,99.90
2023-08-18T21:03:02.616Z,99.90
2023-08-18T21:05:32.382Z,99.90
2023-08-18T21:08:01.034Z,99.90
2023-08-18T21:10:29.878Z,99.90
2023-08-18T21:12:58.401Z,99.90
2023-08-18T21:15:26.797Z,99.90
2023-08-18T21:17:55.269Z,99.90
2023-08-18T21:20:23.800Z,99.90
2023-08-18T21:22:54.359Z,99.90
2023-08-18T21:25:22.901Z,99.90
2023-08-18T21:27:51.416Z,99.90
2023-08-18T21:30:20.017Z,99.90
2023-08-18T21:32:48.887Z,99.90
2023-08-18T21:35:17.714Z,99.90
2023-08-18T21:37:46.156Z,99.90
2023-08-18T21:40:16.036Z,99.90
2023-08-18T21:42:44.637Z,99.90
2023-08-18T21:45:13.568Z,99.90
2023-08-18T21:47:42.038Z,99.90
2023-08-18T21:50:14.143Z,99.90
2023-08-18T21:52:43.757Z,99.90
2023-08-18T21:55:12.448Z,99.90
2023-08-18T21:57:42.331Z,99.90
2023-08-18T22:00:11.407Z,99.90
2023-08-18T22:02:46.077Z,99.90
2023-08-18T22:05:15.305Z,99.90
2023-08-18T22:07:46.807Z,99.90
2023-08-18T22:10:15.786Z,99.90
2023-08-18T22:12:45.804Z,99.90
2023-08-18T22:15:14.178Z,99.90
2023-08-18T22:17:44.668Z,99.90
2023-08-18T22:20:13.491Z,99.90
2023-08-18T22:22:42.305Z,99.90
2023-08-18T22:25:11.463Z,99.90
2023-08-18T22:27:39.884Z,99.90
2023-08-18T22:30:11.287Z,99.90
2023-08-18T22:32:40.090Z,99.90
2023-08-18T22:35:09.715Z,99.90
2023-08-18T22:37:38.533Z,99.90
2023-08-18T22:40:09.023Z,99.90
2023-08-18T22:42:37.438Z,99.90
2023-08-18T22:45:06.287Z,99.90
2023-08-18T22:47:39.379Z,99.90
2023-08-18T22:50:08.849Z,99.90
2023-08-18T22:52:37.204Z,99.90
2023-08-18T22:55:06.770Z,99.90
2023-08-18T22:57:35.431Z,99.90
2023-08-18T23:00:07.749Z,99.90
2023-08-18T23:02:37.843Z,99.90
2023-08-18T23:05:07.120Z,99.90
2023-08-18T23:07:35.921Z,99.90
2023-08-18T23:10:05.962Z,99.90
2023-08-18T23:12:34.969Z,99.90
2023-08-18T23:15:05.528Z,99.90
2023-08-18T23:17:34.589Z,99.90
2023-08-18T23:20:06.005Z,99.90
2023-08-18T23:22:34.479Z,99.90
2023-08-18T23:25:04.889Z,99.90
2023-08-18T23:27:33.665Z,99.90
2023-08-18T23:30:02.270Z,99.90
2023-08-18T23:32:30.754Z,99.90
2023-08-18T23:34:59.118Z,99.90
2023-08-18T23:37:29.380Z,99.90
2023-08-18T23:39:57.992Z,99.90
2023-08-18T23:42:26.387Z,99.90
2023-08-18T23:44:55.038Z,99.90
2023-08-18T23:47:23.336Z,99.90
2023-08-18T23:49:52.003Z,99.90
2023-08-18T23:52:20.415Z,99.90
2023-08-18T23:54:50.177Z,99.90
2023-08-18T23:57:18.639Z,99.90
2023-08-18T23:59:46.978Z,99.90
